Flight Track Log - Related Links

Times and Time Zones

All times are in EDT time to prevent confusion due to time zone crossing. See the EJA922 flight status page for this flight to view local times or setup timezone preferences in your user account.

Time Position Orientation Groundspeed Altitude Reporting Facility
EDT Latitude Longitude Course Direction KTS MPH feet Rate Location/Type
Wed 09:07:09 AM 42.3500 -71.0167 132° Southeast 177 204 1,000  Level KA90
Wed 09:08:02 AM 42.3167 -70.9667 132° Southeast 262 302 4,700 3,650 Climbing KA90
Wed 09:09:09 AM 42.3167 -70.8667 90° East 297 342 8,300 2,697 Climbing KA90
Wed 09:09:51 AM 42.3319 -70.8039 72° East 297 342 9,600 1,882 Climbing Boston Center
Wed 09:10:51 AM 42.2703 -70.7211 135° Southeast 335 386 11,500 1,190 Climbing Boston Center
Wed 09:11:52 AM 42.1917 -70.7664 203° Southwest 324 373 12,000 298 Climbing Boston Center
Wed 09:12:52 AM 42.1650 -70.8944 254° West 320 368 12,100 48 Climbing Boston Center
Wed 09:13:56 AM 42.1494 -71.0275 261° West 336 387 12,100  Level Boston Center
Wed 09:14:57 AM 42.1339 -71.1564 261° West 349 402 12,100  Level Boston Center
Wed 09:15:57 AM 42.1181 -71.2883 261° West 358 412 12,100  Level Boston Center
Wed 09:16:58 AM 42.1025 -71.4211 261° West 361 415 12,100  Level Boston Center
Wed 09:17:59 AM 42.0856 -71.5619 261° West 356 410 12,100  Level Boston Center
Wed 09:19:01 AM 42.0694 -71.6900 260° West 350 403 12,100  Level Boston Center
Wed 09:20:01 AM 42.0528 -71.8219 260° West 359 413 12,100  Level Boston Center
Wed 09:21:02 AM 42.0358 -71.9583 261° West 369 425 12,100  Level Boston Center
Wed 09:22:03 AM 42.0175 -72.1019 260° West 363 418 12,100  Level Boston Center
Wed 09:23:03 AM 42.0006 -72.2333 260° West 357 411 12,100  Level Boston Center
Wed 09:24:06 AM 41.9839 -72.3647 260° West 358 412 12,100  Level Boston Center
Wed 09:25:07 AM 41.9669 -72.4942 260° West 352 405 12,100  Level Boston Center
Wed 09:26:09 AM 41.9486 -72.6350 260° West 356 410 12,100  Level Boston Center
Wed 09:27:09 AM 41.9108 -72.7628 248° West 360 414 12,100  Level Boston Center
Wed 09:28:10 AM 41.8617 -72.8822 241° Southwest 365 420 12,100  Level Boston Center
Wed 09:29:10 AM 41.8122 -73.0008 241° Southwest 365 420 12,100  Level Boston Center
Wed 09:30:14 AM 41.7625 -73.1208 241° Southwest 367 422 12,100  Level Boston Center
Wed 09:31:14 AM 41.7089 -73.2472 240° Southwest 365 420 12,100 -50 Level Boston Center
Wed 09:32:14 AM 41.6597 -73.3628 240° Southwest 367 422 12,000 -50 Descending Boston Center
Wed 09:33:15 AM 41.6092 -73.4783 240° Southwest 361 415 12,000 -629 Level Boston Center
Wed 09:34:18 AM 41.5683 -73.5744 240° Southwest 276 318 10,700 -1,258 Descending Boston Center
Wed 09:35:19 AM 41.5339 -73.6550 240° Southwest 250 288 9,400 -1,370 Descending Boston Center
Wed 09:35:50 AM 41.5167 -73.7000 243° Southwest 249 287 8,600 -1,385 Descending New York TRACON
Wed 09:36:50 AM 41.4833 -73.7833 242° Southwest 249 287 7,300 -1,316 Descending New York TRACON
Wed 09:37:44 AM 41.4500 -73.8333 228° Southwest 251 289 6,100 -1,368 Descending New York TRACON
Wed 09:38:44 AM 41.3667 -73.8333 180° South 280 322 4,700 -1,450 Descending New York TRACON
Wed 09:39:44 AM 41.3167 -73.7667 135° Southeast 271 312 3,200 -850 Descending New York TRACON
Wed 09:40:44 AM 41.2500 -73.7167 151° Southeast 267 307 3,000 -105 Descending New York TRACON
Wed 09:41:38 AM 41.2000 -73.6667 143° Southeast 265 305 3,000  Level New York TRACON
Wed 09:42:38 AM 41.1333 -73.6167 151° Southeast 260 299 3,000 -48 Level New York TRACON
Wed 09:43:44 AM 41.0667 -73.5667 151° Southeast 244 281 2,900 -400 Descending New York TRACON
Wed 09:44:38 AM 41.0167 -73.5500 166° South 211 243 2,200 -474 Descending New York TRACON
Wed 09:45:38 AM 40.9667 -73.5667 194° South 186 214 2,000 -100 Descending New York TRACON
Wed 09:46:38 AM 40.9667 -73.6333 270° West 180 207 2,000 -105 Level New York TRACON
Wed 09:47:32 AM 41.0000 -73.6667 323° Northwest 163 188 1,800 -579 Descending New York TRACON
Wed 09:48:32 AM 41.0333 -73.6833 339° North 142 163 900 -900 Descending New York TRACON

Login

Don't have an account? Register now (free) for customized features, flight alerts, and more!